Bindloss, Canada
Current Conditions -  °F | °C
As of 3:00 AM on Thursday 27 Nov 2014 (Local Time) from CYXH Reporting Station
Light Snow Light Snow  
Wind Chill: 21°   Ceiling: 1200
Heat Index: 28°   Visibility: 0.75mi
Dew Point: 28°   Wind: 7mph
Humidity: 100%   Direction: 60°ENE
Pressure: 29.94"   Gusts: NA
Location:  50.88°N, 110.27°W
Report Text: CYXH 271000Z AUTO 06006KT 3/4SM -SN VV012 M02/M02 A2994 RMK PCPN 1.0MM PAST HR SLP168
Loading
Personal Weather Stations






























Interactive Weather Map New forecast layout! Learn more

10-Day Weather Forecast

Advertisements
Track Severe Weather on mobile